sensor_id;sensor_type;location;lat;lon;timestamp;temperature;humidity
5792;DHT22;2922;53.482;10.006;2023-03-14T00:00:34;10.80;99.90
5792;DHT22;2922;53.482;10.006;2023-03-14T00:03:00;10.80;99.90
5792;DHT22;2922;53.482;10.006;2023-03-14T00:05:25;10.80;99.90
5792;DHT22;2922;53.482;10.006;2023-03-14T00:07:51;10.80;99.90
5792;DHT22;2922;53.482;10.006;2023-03-14T00:10:17;10.80;99.90
5792;DHT22;2922;53.482;10.006;2023-03-14T00:12:43;10.80;99.90
5792;DHT22;2922;53.482;10.006;2023-03-14T00:15:10;10.80;99.90
5792;DHT22;2922;53.482;10.006;2023-03-14T00:17:36;10.70;99.90
5792;DHT22;2922;53.482;10.006;2023-03-14T00:20:03;10.70;99.90
5792;DHT22;2922;53.482;10.006;2023-03-14T00:22:34;10.60;99.90
5792;DHT22;2922;53.482;10.006;2023-03-14T00:25:00;10.60;99.90
5792;DHT22;2922;53.482;10.006;2023-03-14T00:27:25;10.60;99.90
5792;DHT22;2922;53.482;10.006;2023-03-14T00:29:51;10.60;99.90
5792;DHT22;2922;53.482;10.006;2023-03-14T00:32:16;10.60;99.90
5792;DHT22;2922;53.482;10.006;2023-03-14T00:34:42;10.60;99.90
5792;DHT22;2922;53.482;10.006;2023-03-14T00:37:08;10.60;99.90
5792;DHT22;2922;53.482;10.006;2023-03-14T00:39:33;10.60;99.90
5792;DHT22;2922;53.482;10.006;2023-03-14T00:41:59;10.60;99.90
5792;DHT22;2922;53.482;10.006;2023-03-14T00:44:24;10.60;99.90
5792;DHT22;2922;53.482;10.006;2023-03-14T00:46:50;10.60;99.90
5792;DHT22;2922;53.482;10.006;2023-03-14T00:49:15;10.60;99.90
5792;DHT22;2922;53.482;10.006;2023-03-14T00:51:41;10.60;99.90
5792;DHT22;2922;53.482;10.006;2023-03-14T00:54:07;10.50;99.90
5792;DHT22;2922;53.482;10.006;2023-03-14T00:56:32;10.50;99.90
5792;DHT22;2922;53.482;10.006;2023-03-14T00:58:58;10.40;99.90
5792;DHT22;2922;53.482;10.006;2023-03-14T01:01:24;10.50;99.90
5792;DHT22;2922;53.482;10.006;2023-03-14T01:03:54;10.40;99.90
5792;DHT22;2922;53.482;10.006;2023-03-14T01:06:25;10.40;99.90
5792;DHT22;2922;53.482;10.006;2023-03-14T01:08:52;10.30;99.90
5792;DHT22;2922;53.482;10.006;2023-03-14T01:11:29;10.30;99.90
5792;DHT22;2922;53.482;10.006;2023-03-14T01:13:55;10.30;99.90
5792;DHT22;2922;53.482;10.006;2023-03-14T01:16:22;10.40;99.90
5792;DHT22;2922;53.482;10.006;2023-03-14T01:18:48;10.40;99.90
5792;DHT22;2922;53.482;10.006;2023-03-14T01:21:15;10.40;99.90
5792;DHT22;2922;53.482;10.006;2023-03-14T01:23:42;10.40;99.90
5792;DHT22;2922;53.482;10.006;2023-03-14T01:26:12;10.40;99.90
5792;DHT22;2922;53.482;10.006;2023-03-14T01:28:38;10.40;99.90
5792;DHT22;2922;53.482;10.006;2023-03-14T01:31:06;10.50;99.90
5792;DHT22;2922;53.482;10.006;2023-03-14T01:33:31;10.40;99.90
5792;DHT22;2922;53.482;10.006;2023-03-14T01:35:57;10.50;99.90
5792;DHT22;2922;53.482;10.006;2023-03-14T01:38:23;10.50;99.90
5792;DHT22;2922;53.482;10.006;2023-03-14T01:40:48;10.50;99.90
5792;DHT22;2922;53.482;10.006;2023-03-14T01:43:16;10.40;99.90
5792;DHT22;2922;53.482;10.006;2023-03-14T01:48:37;10.40;99.90
5792;DHT22;2922;53.482;10.006;2023-03-14T01:51:07;10.40;99.90
5792;DHT22;2922;53.482;10.006;2023-03-14T01:53:34;10.40;99.90
5792;DHT22;2922;53.482;10.006;2023-03-14T01:56:00;10.40;99.90
5792;DHT22;2922;53.482;10.006;2023-03-14T01:58:27;10.40;99.90
5792;DHT22;2922;53.482;10.006;2023-03-14T02:00:56;10.40;99.90
5792;DHT22;2922;53.482;10.006;2023-03-14T02:03:23;10.40;99.90
5792;DHT22;2922;53.482;10.006;2023-03-14T02:05:51;10.40;99.90
5792;DHT22;2922;53.482;10.006;2023-03-14T02:08:20;10.40;99.90
5792;DHT22;2922;53.482;10.006;2023-03-14T02:10:48;10.40;99.90
5792;DHT22;2922;53.482;10.006;2023-03-14T02:13:16;10.40;99.90
5792;DHT22;2922;53.482;10.006;2023-03-14T02:15:42;10.40;99.90
5792;DHT22;2922;53.482;10.006;2023-03-14T02:18:09;10.40;99.90
5792;DHT22;2922;53.482;10.006;2023-03-14T02:21:00;10.30;99.90
5792;DHT22;2922;53.482;10.006;2023-03-14T02:23:58;10.40;99.90
5792;DHT22;2922;53.482;10.006;2023-03-14T02:26:36;10.40;99.90
5792;DHT22;2922;53.482;10.006;2023-03-14T02:29:03;10.30;99.90
5792;DHT22;2922;53.482;10.006;2023-03-14T02:31:29;10.30;99.90
5792;DHT22;2922;53.482;10.006;2023-03-14T02:33:55;10.30;99.90
5792;DHT22;2922;53.482;10.006;2023-03-14T02:36:22;10.30;99.90
5792;DHT22;2922;53.482;10.006;2023-03-14T02:41:17;10.30;99.90
5792;DHT22;2922;53.482;10.006;2023-03-14T02:43:43;10.40;99.90
5792;DHT22;2922;53.482;10.006;2023-03-14T02:46:11;10.40;99.90
5792;DHT22;2922;53.482;10.006;2023-03-14T02:48:39;10.40;99.90
5792;DHT22;2922;53.482;10.006;2023-03-14T02:51:07;10.40;99.90
5792;DHT22;2922;53.482;10.006;2023-03-14T02:53:34;10.30;99.90
5792;DHT22;2922;53.482;10.006;2023-03-14T02:56:01;10.30;99.90
5792;DHT22;2922;53.482;10.006;2023-03-14T02:58:28;10.30;99.90
5792;DHT22;2922;53.482;10.006;2023-03-14T03:00:54;10.30;99.90
5792;DHT22;2922;53.482;10.006;2023-03-14T03:03:20;10.30;99.90
5792;DHT22;2922;53.482;10.006;2023-03-14T03:05:50;10.30;99.90
5792;DHT22;2922;53.482;10.006;2023-03-14T03:08:17;10.40;99.90
5792;DHT22;2922;53.482;10.006;2023-03-14T03:10:42;10.40;99.90
5792;DHT22;2922;53.482;10.006;2023-03-14T03:13:08;10.50;99.90
5792;DHT22;2922;53.482;10.006;2023-03-14T03:15:34;10.50;99.90
5792;DHT22;2922;53.482;10.006;2023-03-14T03:17:59;10.50;99.90
5792;DHT22;2922;53.482;10.006;2023-03-14T03:20:25;10.60;99.90
5792;DHT22;2922;53.482;10.006;2023-03-14T03:22:50;10.60;99.90
5792;DHT22;2922;53.482;10.006;2023-03-14T03:25:16;10.50;99.90
5792;DHT22;2922;53.482;10.006;2023-03-14T03:27:42;10.60;99.90
5792;DHT22;2922;53.482;10.006;2023-03-14T03:30:08;10.60;99.90
5792;DHT22;2922;53.482;10.006;2023-03-14T03:32:35;10.60;99.90
5792;DHT22;2922;53.482;10.006;2023-03-14T03:35:04;10.70;99.90
5792;DHT22;2922;53.482;10.006;2023-03-14T03:37:31;10.70;99.90
5792;DHT22;2922;53.482;10.006;2023-03-14T03:39:57;10.70;99.90
5792;DHT22;2922;53.482;10.006;2023-03-14T03:42:22;10.70;99.90
5792;DHT22;2922;53.482;10.006;2023-03-14T03:44:48;10.80;99.90
5792;DHT22;2922;53.482;10.006;2023-03-14T03:47:15;10.80;99.90
5792;DHT22;2922;53.482;10.006;2023-03-14T03:49:40;10.80;99.90
5792;DHT22;2922;53.482;10.006;2023-03-14T03:52:06;10.80;99.90
5792;DHT22;2922;53.482;10.006;2023-03-14T03:54:32;10.70;99.90
5792;DHT22;2922;53.482;10.006;2023-03-14T03:56:57;10.80;99.90
5792;DHT22;2922;53.482;10.006;2023-03-14T03:59:23;10.80;99.90
5792;DHT22;2922;53.482;10.006;2023-03-14T04:01:48;10.70;99.90
5792;DHT22;2922;53.482;10.006;2023-03-14T04:04:14;10.70;99.90
5792;DHT22;2922;53.482;10.006;2023-03-14T04:06:40;10.70;99.90
5792;DHT22;2922;53.482;10.006;2023-03-14T04:09:07;10.70;99.90
5792;DHT22;2922;53.482;10.006;2023-03-14T04:11:33;10.70;99.90
5792;DHT22;2922;53.482;10.006;2023-03-14T04:13:59;10.70;99.90
5792;DHT22;2922;53.482;10.006;2023-03-14T04:16:25;10.70;99.90
5792;DHT22;2922;53.482;10.006;2023-03-14T04:18:51;10.60;99.90
5792;DHT22;2922;53.482;10.006;2023-03-14T04:21:18;10.60;99.90
5792;DHT22;2922;53.482;10.006;2023-03-14T04:23:44;10.60;99.90
5792;DHT22;2922;53.482;10.006;2023-03-14T04:26:09;10.60;99.90
5792;DHT22;2922;53.482;10.006;2023-03-14T04:28:35;10.60;99.90
5792;DHT22;2922;53.482;10.006;2023-03-14T04:31:08;10.60;99.90
5792;DHT22;2922;53.482;10.006;2023-03-14T04:33:34;10.60;99.90
5792;DHT22;2922;53.482;10.006;2023-03-14T04:36:01;10.60;99.90
5792;DHT22;2922;53.482;10.006;2023-03-14T04:38:27;10.70;99.90
5792;DHT22;2922;53.482;10.006;2023-03-14T04:40:52;10.70;99.90
5792;DHT22;2922;53.482;10.006;2023-03-14T04:43:18;10.70;99.90
5792;DHT22;2922;53.482;10.006;2023-03-14T04:45:44;10.70;99.90
5792;DHT22;2922;53.482;10.006;2023-03-14T04:48:09;10.70;99.90
5792;DHT22;2922;53.482;10.006;2023-03-14T04:50:35;10.70;99.90
5792;DHT22;2922;53.482;10.006;2023-03-14T04:53:00;10.70;99.90
5792;DHT22;2922;53.482;10.006;2023-03-14T04:55:26;10.80;99.90
5792;DHT22;2922;53.482;10.006;2023-03-14T04:57:52;10.80;99.90
5792;DHT22;2922;53.482;10.006;2023-03-14T05:00:18;10.80;99.90
5792;DHT22;2922;53.482;10.006;2023-03-14T05:02:44;10.80;99.90
5792;DHT22;2922;53.482;10.006;2023-03-14T05:05:10;10.80;99.90
5792;DHT22;2922;53.482;10.006;2023-03-14T05:07:36;10.90;99.90
5792;DHT22;2922;53.482;10.006;2023-03-14T05:10:02;10.90;99.90
5792;DHT22;2922;53.482;10.006;2023-03-14T05:12:28;10.90;99.90
5792;DHT22;2922;53.482;10.006;2023-03-14T05:14:54;10.80;99.90
5792;DHT22;2922;53.482;10.006;2023-03-14T05:17:19;10.80;99.90
5792;DHT22;2922;53.482;10.006;2023-03-14T05:19:45;10.80;99.90
5792;DHT22;2922;53.482;10.006;2023-03-14T05:22:11;10.80;99.90
5792;DHT22;2922;53.482;10.006;2023-03-14T05:24:36;10.80;99.90
5792;DHT22;2922;53.482;10.006;2023-03-14T05:27:03;10.70;99.90
5792;DHT22;2922;53.482;10.006;2023-03-14T05:29:29;10.70;99.90
5792;DHT22;2922;53.482;10.006;2023-03-14T05:31:54;10.80;99.90
5792;DHT22;2922;53.482;10.006;2023-03-14T05:34:20;10.80;99.90
5792;DHT22;2922;53.482;10.006;2023-03-14T05:36:45;10.80;99.90
5792;DHT22;2922;53.482;10.006;2023-03-14T05:39:11;10.80;99.90
5792;DHT22;2922;53.482;10.006;2023-03-14T05:41:37;10.80;99.90
5792;DHT22;2922;53.482;10.006;2023-03-14T05:44:03;10.80;99.90
5792;DHT22;2922;53.482;10.006;2023-03-14T05:46:28;10.70;99.90
5792;DHT22;2922;53.482;10.006;2023-03-14T05:48:58;10.70;99.90
5792;DHT22;2922;53.482;10.006;2023-03-14T05:51:24;10.70;99.90
5792;DHT22;2922;53.482;10.006;2023-03-14T05:53:50;10.70;99.90
5792;DHT22;2922;53.482;10.006;2023-03-14T05:56:15;10.70;99.90
5792;DHT22;2922;53.482;10.006;2023-03-14T05:58:41;10.70;99.90
5792;DHT22;2922;53.482;10.006;2023-03-14T06:01:07;10.70;99.90
5792;DHT22;2922;53.482;10.006;2023-03-14T06:03:33;10.60;99.90
5792;DHT22;2922;53.482;10.006;2023-03-14T06:05:58;10.60;99.90
5792;DHT22;2922;53.482;10.006;2023-03-14T06:08:24;10.60;99.90
5792;DHT22;2922;53.482;10.006;2023-03-14T06:10:51;10.60;99.90
5792;DHT22;2922;53.482;10.006;2023-03-14T06:13:16;10.60;99.90
5792;DHT22;2922;53.482;10.006;2023-03-14T06:15:42;10.60;99.90
5792;DHT22;2922;53.482;10.006;2023-03-14T06:18:08;10.60;99.90
5792;DHT22;2922;53.482;10.006;2023-03-14T06:20:36;10.60;99.90
5792;DHT22;2922;53.482;10.006;2023-03-14T06:23:04;10.60;99.90
5792;DHT22;2922;53.482;10.006;2023-03-14T06:25:30;10.60;99.90
5792;DHT22;2922;53.482;10.006;2023-03-14T06:27:55;10.50;99.90
5792;DHT22;2922;53.482;10.006;2023-03-14T06:30:21;10.50;99.90
5792;DHT22;2922;53.482;10.006;2023-03-14T06:32:47;10.50;99.90
5792;DHT22;2922;53.482;10.006;2023-03-14T06:35:12;10.50;99.90
5792;DHT22;2922;53.482;10.006;2023-03-14T06:37:38;10.50;99.90
5792;DHT22;2922;53.482;10.006;2023-03-14T06:40:03;10.40;99.90
5792;DHT22;2922;53.482;10.006;2023-03-14T06:42:30;10.50;99.90
5792;DHT22;2922;53.482;10.006;2023-03-14T06:44:56;10.50;99.90
5792;DHT22;2922;53.482;10.006;2023-03-14T06:47:21;10.50;99.90
5792;DHT22;2922;53.482;10.006;2023-03-14T06:49:47;10.60;99.90
5792;DHT22;2922;53.482;10.006;2023-03-14T06:52:12;10.70;99.90
5792;DHT22;2922;53.482;10.006;2023-03-14T06:54:38;10.80;99.90
5792;DHT22;2922;53.482;10.006;2023-03-14T06:57:03;10.80;99.90
5792;DHT22;2922;53.482;10.006;2023-03-14T06:59:29;10.80;99.90
5792;DHT22;2922;53.482;10.006;2023-03-14T07:01:54;10.80;99.90
5792;DHT22;2922;53.482;10.006;2023-03-14T07:04:20;10.80;99.90
5792;DHT22;2922;53.482;10.006;2023-03-14T07:06:55;10.80;99.90
5792;DHT22;2922;53.482;10.006;2023-03-14T07:09:20;10.70;99.90
5792;DHT22;2922;53.482;10.006;2023-03-14T07:11:46;10.70;99.90
5792;DHT22;2922;53.482;10.006;2023-03-14T07:14:12;10.70;99.90
5792;DHT22;2922;53.482;10.006;2023-03-14T07:16:37;10.60;99.90
5792;DHT22;2922;53.482;10.006;2023-03-14T07:19:03;10.60;99.90
5792;DHT22;2922;53.482;10.006;2023-03-14T07:21:28;10.60;99.90
5792;DHT22;2922;53.482;10.006;2023-03-14T07:23:54;10.60;99.90
5792;DHT22;2922;53.482;10.006;2023-03-14T07:26:20;10.60;99.90
5792;DHT22;2922;53.482;10.006;2023-03-14T07:28:46;10.70;99.90
5792;DHT22;2922;53.482;10.006;2023-03-14T07:31:11;10.70;99.90
5792;DHT22;2922;53.482;10.006;2023-03-14T07:33:37;10.90;99.90
5792;DHT22;2922;53.482;10.006;2023-03-14T07:36:03;11.00;99.90
5792;DHT22;2922;53.482;10.006;2023-03-14T07:38:29;10.90;99.90
5792;DHT22;2922;53.482;10.006;2023-03-14T07:41:01;11.00;99.90
5792;DHT22;2922;53.482;10.006;2023-03-14T07:43:27;11.10;99.90
5792;DHT22;2922;53.482;10.006;2023-03-14T07:45:53;11.40;99.90
5792;DHT22;2922;53.482;10.006;2023-03-14T07:48:19;11.60;99.90
5792;DHT22;2922;53.482;10.006;2023-03-14T07:50:48;11.60;99.90
5792;DHT22;2922;53.482;10.006;2023-03-14T07:53:13;11.50;99.90
5792;DHT22;2922;53.482;10.006;2023-03-14T07:55:40;11.50;99.90
5792;DHT22;2922;53.482;10.006;2023-03-14T07:58:06;11.40;99.90
5792;DHT22;2922;53.482;10.006;2023-03-14T08:00:31;11.30;99.90
5792;DHT22;2922;53.482;10.006;2023-03-14T08:02:58;11.20;99.90
5792;DHT22;2922;53.482;10.006;2023-03-14T08:05:23;11.10;99.90
5792;DHT22;2922;53.482;10.006;2023-03-14T08:07:49;11.10;99.90
5792;DHT22;2922;53.482;10.006;2023-03-14T08:10:15;11.00;99.90
5792;DHT22;2922;53.482;10.006;2023-03-14T08:12:50;11.10;99.90
5792;DHT22;2922;53.482;10.006;2023-03-14T08:15:16;11.20;99.90
5792;DHT22;2922;53.482;10.006;2023-03-14T08:17:42;11.40;99.90
5792;DHT22;2922;53.482;10.006;2023-03-14T08:20:08;11.70;99.90
5792;DHT22;2922;53.482;10.006;2023-03-14T08:22:36;12.00;99.90
5792;DHT22;2922;53.482;10.006;2023-03-14T08:25:01;12.10;99.90
5792;DHT22;2922;53.482;10.006;2023-03-14T08:27:27;12.20;99.90
5792;DHT22;2922;53.482;10.006;2023-03-14T08:29:52;12.10;99.90
5792;DHT22;2922;53.482;10.006;2023-03-14T08:32:18;12.00;99.90
5792;DHT22;2922;53.482;10.006;2023-03-14T08:34:45;11.90;99.90
5792;DHT22;2922;53.482;10.006;2023-03-14T08:37:11;11.70;99.90
5792;DHT22;2922;53.482;10.006;2023-03-14T08:39:36;11.70;99.90
5792;DHT22;2922;53.482;10.006;2023-03-14T08:42:02;11.80;99.90
5792;DHT22;2922;53.482;10.006;2023-03-14T08:44:28;11.90;99.90
5792;DHT22;2922;53.482;10.006;2023-03-14T08:46:54;11.90;99.90
5792;DHT22;2922;53.482;10.006;2023-03-14T08:49:20;11.90;99.90
5792;DHT22;2922;53.482;10.006;2023-03-14T08:51:46;11.80;99.90
5792;DHT22;2922;53.482;10.006;2023-03-14T08:54:11;11.80;99.90
5792;DHT22;2922;53.482;10.006;2023-03-14T08:56:37;11.90;99.90
5792;DHT22;2922;53.482;10.006;2023-03-14T08:59:06;12.00;99.90
5792;DHT22;2922;53.482;10.006;2023-03-14T09:01:32;12.00;99.90
5792;DHT22;2922;53.482;10.006;2023-03-14T09:03:57;12.00;99.90
5792;DHT22;2922;53.482;10.006;2023-03-14T09:06:23;11.90;99.90
5792;DHT22;2922;53.482;10.006;2023-03-14T09:08:48;11.90;99.90
5792;DHT22;2922;53.482;10.006;2023-03-14T09:11:14;11.80;99.90
5792;DHT22;2922;53.482;10.006;2023-03-14T09:13:40;11.90;99.90
5792;DHT22;2922;53.482;10.006;2023-03-14T09:16:07;12.10;99.90
5792;DHT22;2922;53.482;10.006;2023-03-14T09:18:33;12.20;99.90
5792;DHT22;2922;53.482;10.006;2023-03-14T09:20:59;12.20;99.90
5792;DHT22;2922;53.482;10.006;2023-03-14T09:23:24;12.10;99.90
5792;DHT22;2922;53.482;10.006;2023-03-14T09:25:58;11.90;99.90
5792;DHT22;2922;53.482;10.006;2023-03-14T09:28:24;11.80;99.90
5792;DHT22;2922;53.482;10.006;2023-03-14T09:30:50;11.80;99.90
5792;DHT22;2922;53.482;10.006;2023-03-14T09:33:16;11.70;99.90
5792;DHT22;2922;53.482;10.006;2023-03-14T09:35:42;11.70;99.90
5792;DHT22;2922;53.482;10.006;2023-03-14T09:38:07;11.70;99.90
5792;DHT22;2922;53.482;10.006;2023-03-14T09:40:37;11.70;99.90
5792;DHT22;2922;53.482;10.006;2023-03-14T09:43:03;11.70;99.90
5792;DHT22;2922;53.482;10.006;2023-03-14T09:45:33;11.70;99.90
5792;DHT22;2922;53.482;10.006;2023-03-14T09:48:01;11.70;99.90
5792;DHT22;2922;53.482;10.006;2023-03-14T09:50:38;11.60;99.90
5792;DHT22;2922;53.482;10.006;2023-03-14T09:53:12;11.50;99.90
5792;DHT22;2922;53.482;10.006;2023-03-14T09:55:38;11.20;99.90
5792;DHT22;2922;53.482;10.006;2023-03-14T09:58:10;11.00;99.90
5792;DHT22;2922;53.482;10.006;2023-03-14T10:00:36;10.80;99.90
5792;DHT22;2922;53.482;10.006;2023-03-14T10:05:37;10.40;99.90
5792;DHT22;2922;53.482;10.006;2023-03-14T10:08:02;9.60;99.90
5792;DHT22;2922;53.482;10.006;2023-03-14T10:10:28;9.40;99.90
5792;DHT22;2922;53.482;10.006;2023-03-14T10:12:57;9.20;99.90
5792;DHT22;2922;53.482;10.006;2023-03-14T10:15:33;9.10;99.90
5792;DHT22;2922;53.482;10.006;2023-03-14T10:18:01;8.90;99.90
5792;DHT22;2922;53.482;10.006;2023-03-14T10:20:36;8.70;99.90
5792;DHT22;2922;53.482;10.006;2023-03-14T10:25:44;8.30;99.90
5792;DHT22;2922;53.482;10.006;2023-03-14T10:28:30;8.20;99.90
5792;DHT22;2922;53.482;10.006;2023-03-14T10:30:57;8.10;99.90
5792;DHT22;2922;53.482;10.006;2023-03-14T10:33:28;8.00;99.90
5792;DHT22;2922;53.482;10.006;2023-03-14T10:36:00;7.90;99.90
5792;DHT22;2922;53.482;10.006;2023-03-14T10:38:28;7.70;99.90
5792;DHT22;2922;53.482;10.006;2023-03-14T10:40:55;7.60;99.90
5792;DHT22;2922;53.482;10.006;2023-03-14T10:43:33;7.60;99.90
5792;DHT22;2922;53.482;10.006;2023-03-14T10:46:10;7.40;99.90
5792;DHT22;2922;53.482;10.006;2023-03-14T10:48:38;7.20;99.90
5792;DHT22;2922;53.482;10.006;2023-03-14T10:53:44;7.00;99.90
5792;DHT22;2922;53.482;10.006;2023-03-14T10:56:21;6.80;99.90
5792;DHT22;2922;53.482;10.006;2023-03-14T10:58:52;6.60;99.90
5792;DHT22;2922;53.482;10.006;2023-03-14T11:01:31;6.50;99.90
5792;DHT22;2922;53.482;10.006;2023-03-14T11:04:22;6.40;99.90
5792;DHT22;2922;53.482;10.006;2023-03-14T11:09:36;6.20;99.90
5792;DHT22;2922;53.482;10.006;2023-03-14T11:15:05;6.00;99.90
5792;DHT22;2922;53.482;10.006;2023-03-14T11:20:32;5.90;99.90
5792;DHT22;2922;53.482;10.006;2023-03-14T11:23:12;5.90;99.90
5792;DHT22;2922;53.482;10.006;2023-03-14T11:25:54;5.90;99.90
5792;DHT22;2922;53.482;10.006;2023-03-14T11:28:39;5.80;99.90
5792;DHT22;2922;53.482;10.006;2023-03-14T11:31:16;5.70;99.90
5792;DHT22;2922;53.482;10.006;2023-03-14T11:36:27;5.50;99.90
5792;DHT22;2922;53.482;10.006;2023-03-14T11:38:58;5.50;99.90
5792;DHT22;2922;53.482;10.006;2023-03-14T11:41:50;5.50;99.90
5792;DHT22;2922;53.482;10.006;2023-03-14T11:44:38;5.50;99.90
5792;DHT22;2922;53.482;10.006;2023-03-14T11:47:37;5.40;99.90
5792;DHT22;2922;53.482;10.006;2023-03-14T11:50:08;5.40;99.90
5792;DHT22;2922;53.482;10.006;2023-03-14T11:52:44;5.40;99.90
5792;DHT22;2922;53.482;10.006;2023-03-14T11:55:33;5.50;99.90
5792;DHT22;2922;53.482;10.006;2023-03-14T11:58:22;5.60;99.90
5792;DHT22;2922;53.482;10.006;2023-03-14T12:00:49;5.70;99.90
5792;DHT22;2922;53.482;10.006;2023-03-14T12:03:45;5.70;99.90
5792;DHT22;2922;53.482;10.006;2023-03-14T12:09:01;5.70;99.90
5792;DHT22;2922;53.482;10.006;2023-03-14T12:11:50;5.50;99.90
5792;DHT22;2922;53.482;10.006;2023-03-14T12:14:27;5.50;99.90
5792;DHT22;2922;53.482;10.006;2023-03-14T12:17:05;5.50;99.90
5792;DHT22;2922;53.482;10.006;2023-03-14T12:19:34;5.60;99.90
5792;DHT22;2922;53.482;10.006;2023-03-14T12:24:29;5.70;99.90
5792;DHT22;2922;53.482;10.006;2023-03-14T12:26:57;5.60;99.90
5792;DHT22;2922;53.482;10.006;2023-03-14T12:29:24;5.60;99.90
5792;DHT22;2922;53.482;10.006;2023-03-14T12:32:30;5.50;99.90
5792;DHT22;2922;53.482;10.006;2023-03-14T12:35:07;5.50;99.90
5792;DHT22;2922;53.482;10.006;2023-03-14T12:37:53;5.50;99.90
5792;DHT22;2922;53.482;10.006;2023-03-14T12:40:31;5.60;99.90
5792;DHT22;2922;53.482;10.006;2023-03-14T12:43:02;5.70;99.90
5792;DHT22;2922;53.482;10.006;2023-03-14T12:45:36;5.70;99.90
5792;DHT22;2922;53.482;10.006;2023-03-14T12:50:55;5.80;99.90
5792;DHT22;2922;53.482;10.006;2023-03-14T12:56:54;5.80;99.90
5792;DHT22;2922;53.482;10.006;2023-03-14T12:59:42;5.80;99.90
5792;DHT22;2922;53.482;10.006;2023-03-14T13:02:25;5.80;99.90
5792;DHT22;2922;53.482;10.006;2023-03-14T13:05:20;5.80;99.90
5792;DHT22;2922;53.482;10.006;2023-03-14T13:13:03;5.40;99.90
5792;DHT22;2922;53.482;10.006;2023-03-14T13:15:46;5.50;99.90
5792;DHT22;2922;53.482;10.006;2023-03-14T13:18:17;5.40;99.90
5792;DHT22;2922;53.482;10.006;2023-03-14T13:20:51;5.60;99.90
5792;DHT22;2922;53.482;10.006;2023-03-14T13:23:30;5.70;99.90
5792;DHT22;2922;53.482;10.006;2023-03-14T13:25:57;5.70;99.90
5792;DHT22;2922;53.482;10.006;2023-03-14T13:28:23;5.80;99.90
5792;DHT22;2922;53.482;10.006;2023-03-14T13:30:50;5.90;99.90
5792;DHT22;2922;53.482;10.006;2023-03-14T13:33:21;6.10;99.90
5792;DHT22;2922;53.482;10.006;2023-03-14T13:36:02;6.10;99.90
5792;DHT22;2922;53.482;10.006;2023-03-14T13:38:30;6.10;99.90
5792;DHT22;2922;53.482;10.006;2023-03-14T13:40:58;6.10;99.90
5792;DHT22;2922;53.482;10.006;2023-03-14T13:43:39;6.10;99.90
5792;DHT22;2922;53.482;10.006;2023-03-14T13:46:15;6.10;99.90
5792;DHT22;2922;53.482;10.006;2023-03-14T13:48:49;6.10;99.90
5792;DHT22;2922;53.482;10.006;2023-03-14T13:51:19;6.20;99.90
5792;DHT22;2922;53.482;10.006;2023-03-14T13:56:18;6.20;99.90
5792;DHT22;2922;53.482;10.006;2023-03-14T13:58:44;6.30;99.90
5792;DHT22;2922;53.482;10.006;2023-03-14T14:01:19;6.40;99.90
5792;DHT22;2922;53.482;10.006;2023-03-14T14:03:48;6.60;99.90
5792;DHT22;2922;53.482;10.006;2023-03-14T14:06:36;6.70;99.90
5792;DHT22;2922;53.482;10.006;2023-03-14T14:09:11;6.80;99.90
5792;DHT22;2922;53.482;10.006;2023-03-14T14:14:25;6.60;99.90
5792;DHT22;2922;53.482;10.006;2023-03-14T14:16:52;6.50;99.90
5792;DHT22;2922;53.482;10.006;2023-03-14T14:19:19;6.30;99.90
5792;DHT22;2922;53.482;10.006;2023-03-14T14:21:46;6.30;99.90
5792;DHT22;2922;53.482;10.006;2023-03-14T14:24:13;6.40;99.90
5792;DHT22;2922;53.482;10.006;2023-03-14T14:26:41;6.50;99.90
5792;DHT22;2922;53.482;10.006;2023-03-14T14:29:30;6.40;99.90
5792;DHT22;2922;53.482;10.006;2023-03-14T14:39:42;6.50;99.90
5792;DHT22;2922;53.482;10.006;2023-03-14T14:42:14;6.50;99.90
5792;DHT22;2922;53.482;10.006;2023-03-14T14:44:42;6.50;99.90
5792;DHT22;2922;53.482;10.006;2023-03-14T14:47:13;6.50;99.90
5792;DHT22;2922;53.482;10.006;2023-03-14T14:49:39;6.40;99.90
5792;DHT22;2922;53.482;10.006;2023-03-14T14:54:39;6.40;99.90
5792;DHT22;2922;53.482;10.006;2023-03-14T14:57:18;6.30;99.90
5792;DHT22;2922;53.482;10.006;2023-03-14T14:59:44;6.30;99.90
5792;DHT22;2922;53.482;10.006;2023-03-14T15:02:29;6.40;99.90
5792;DHT22;2922;53.482;10.006;2023-03-14T15:04:56;6.40;99.90
5792;DHT22;2922;53.482;10.006;2023-03-14T15:07:21;6.30;99.90
5792;DHT22;2922;53.482;10.006;2023-03-14T15:09:47;6.20;99.90
5792;DHT22;2922;53.482;10.006;2023-03-14T15:12:12;6.20;99.90
5792;DHT22;2922;53.482;10.006;2023-03-14T15:14:38;6.20;99.90
5792;DHT22;2922;53.482;10.006;2023-03-14T15:17:08;6.20;99.90
5792;DHT22;2922;53.482;10.006;2023-03-14T15:19:34;6.20;99.90
5792;DHT22;2922;53.482;10.006;2023-03-14T15:22:00;6.30;99.90
5792;DHT22;2922;53.482;10.006;2023-03-14T15:24:26;6.30;99.90
5792;DHT22;2922;53.482;10.006;2023-03-14T15:26:51;6.30;99.90
5792;DHT22;2922;53.482;10.006;2023-03-14T15:29:17;6.30;99.90
5792;DHT22;2922;53.482;10.006;2023-03-14T15:31:43;6.30;99.90
5792;DHT22;2922;53.482;10.006;2023-03-14T15:34:09;6.40;99.90
5792;DHT22;2922;53.482;10.006;2023-03-14T15:36:36;6.50;99.90
5792;DHT22;2922;53.482;10.006;2023-03-14T15:39:03;6.50;99.90
5792;DHT22;2922;53.482;10.006;2023-03-14T15:41:29;6.50;99.90
5792;DHT22;2922;53.482;10.006;2023-03-14T15:43:55;6.50;99.90
5792;DHT22;2922;53.482;10.006;2023-03-14T15:46:21;6.50;99.90
5792;DHT22;2922;53.482;10.006;2023-03-14T15:48:48;6.30;99.90
5792;DHT22;2922;53.482;10.006;2023-03-14T15:51:14;6.20;99.90
5792;DHT22;2922;53.482;10.006;2023-03-14T15:53:40;6.20;99.90
5792;DHT22;2922;53.482;10.006;2023-03-14T15:56:10;6.10;99.90
5792;DHT22;2922;53.482;10.006;2023-03-14T15:58:36;6.10;99.90
5792;DHT22;2922;53.482;10.006;2023-03-14T16:01:09;6.10;99.90
5792;DHT22;2922;53.482;10.006;2023-03-14T16:03:35;6.00;99.90
5792;DHT22;2922;53.482;10.006;2023-03-14T16:06:01;6.00;99.90
5792;DHT22;2922;53.482;10.006;2023-03-14T16:08:27;5.90;99.90
5792;DHT22;2922;53.482;10.006;2023-03-14T16:10:56;5.90;99.90
5792;DHT22;2922;53.482;10.006;2023-03-14T16:13:23;5.90;99.90
5792;DHT22;2922;53.482;10.006;2023-03-14T16:15:56;5.90;99.90
5792;DHT22;2922;53.482;10.006;2023-03-14T16:18:22;5.90;99.90
5792;DHT22;2922;53.482;10.006;2023-03-14T16:20:53;5.90;99.90
5792;DHT22;2922;53.482;10.006;2023-03-14T16:23:18;5.90;99.90
5792;DHT22;2922;53.482;10.006;2023-03-14T16:25:44;5.80;99.90
5792;DHT22;2922;53.482;10.006;2023-03-14T16:28:10;5.80;99.90
5792;DHT22;2922;53.482;10.006;2023-03-14T16:30:36;5.70;99.90
5792;DHT22;2922;53.482;10.006;2023-03-14T16:33:01;5.70;99.90
5792;DHT22;2922;53.482;10.006;2023-03-14T16:35:27;5.70;99.90
5792;DHT22;2922;53.482;10.006;2023-03-14T16:37:53;5.60;99.90
5792;DHT22;2922;53.482;10.006;2023-03-14T16:40:19;5.50;99.90
5792;DHT22;2922;53.482;10.006;2023-03-14T16:42:44;5.40;99.90
5792;DHT22;2922;53.482;10.006;2023-03-14T16:45:10;5.40;99.90
5792;DHT22;2922;53.482;10.006;2023-03-14T16:47:35;5.40;99.90
5792;DHT22;2922;53.482;10.006;2023-03-14T16:50:01;5.40;99.90
5792;DHT22;2922;53.482;10.006;2023-03-14T16:52:27;5.30;99.90
5792;DHT22;2922;53.482;10.006;2023-03-14T16:54:53;5.20;99.90
5792;DHT22;2922;53.482;10.006;2023-03-14T16:57:18;5.20;99.90